createdAt,value
2022-10-18T00:02:21.261Z,11.05
2022-10-18T00:04:47.991Z,11.07
2022-10-18T00:07:14.643Z,15.05
2022-10-18T00:09:41.349Z,17.38
2022-10-18T00:12:08.181Z,18.33
2022-10-18T00:14:34.863Z,18.98
2022-10-18T00:17:01.714Z,19.90
2022-10-18T00:19:29.366Z,17.63
2022-10-18T00:21:56.514Z,17.85
2022-10-18T00:24:23.174Z,15.13
2022-10-18T00:26:49.780Z,16.02
2022-10-18T00:29:17.972Z,16.95
2022-10-18T00:31:45.135Z,14.77
2022-10-18T00:34:14.692Z,14.30
2022-10-18T00:36:42.775Z,13.75
2022-10-18T00:39:15.799Z,16.45
2022-10-18T00:41:42.594Z,16.30
2022-10-18T00:44:12.246Z,14.10
2022-10-18T00:46:48.890Z,10.98
2022-10-18T00:49:27.374Z,11.02
2022-10-18T00:54:27.510Z,6.95
2022-10-18T00:56:54.392Z,5.70
2022-10-18T00:59:22.334Z,4.90
2022-10-18T01:01:49.219Z,6.10
2022-10-18T01:04:17.940Z,3.65
2022-10-18T01:07:19.561Z,7.05
2022-10-18T01:10:08.831Z,4.70
2022-10-18T01:12:53.891Z,4.75
2022-10-18T01:15:38.788Z,5.05
2022-10-18T01:18:25.080Z,4.50
2022-10-18T01:20:51.659Z,5.78
2022-10-18T01:23:35.839Z,3.42
2022-10-18T01:26:38.577Z,2.72
2022-10-18T01:29:23.963Z,5.25
2022-10-18T01:31:59.579Z,3.53
2022-10-18T01:34:31.433Z,4.43
2022-10-18T01:37:01.227Z,4.38
2022-10-18T01:39:32.003Z,3.95
2022-10-18T01:42:01.462Z,4.00
2022-10-18T01:44:31.892Z,2.53
2022-10-18T01:46:59.724Z,2.25
2022-10-18T01:49:27.380Z,2.58
2022-10-18T01:51:54.072Z,4.38
2022-10-18T01:54:30.962Z,3.58
2022-10-18T01:57:22.468Z,3.42
2022-10-18T02:00:01.734Z,2.20
2022-10-18T02:02:34.601Z,2.15
2022-10-18T02:05:23.215Z,4.43
2022-10-18T02:08:12.353Z,3.28
2022-10-18T02:10:51.073Z,3.03
2022-10-18T02:13:21.480Z,3.67
2022-10-18T02:15:54.600Z,3.70
2022-10-18T02:18:26.827Z,3.20
2022-10-18T02:23:25.800Z,5.82
2022-10-18T02:25:53.095Z,3.67
2022-10-18T02:28:21.305Z,3.47
2022-10-18T02:31:12.232Z,2.88
2022-10-18T02:33:56.725Z,5.93
2022-10-18T02:36:37.066Z,6.90
2022-10-18T02:39:11.581Z,8.63
2022-10-18T02:41:38.476Z,8.52
2022-10-18T02:44:05.220Z,9.38
2022-10-18T02:46:31.933Z,8.60
2022-10-18T02:48:58.684Z,6.55
2022-10-18T02:51:25.482Z,6.85
2022-10-18T02:53:52.382Z,8.27
2022-10-18T02:56:19.199Z,7.57
2022-10-18T02:58:45.866Z,5.45
2022-10-18T03:01:12.669Z,7.72
2022-10-18T03:03:39.293Z,7.45
2022-10-18T03:06:06.031Z,7.15
2022-10-18T03:08:32.662Z,7.82
2022-10-18T03:10:59.328Z,7.30
2022-10-18T03:13:25.981Z,7.55
2022-10-18T03:15:52.666Z,6.90
2022-10-18T03:18:19.348Z,6.32
2022-10-18T03:20:46.228Z,7.03
2022-10-18T03:23:12.972Z,7.50
2022-10-18T03:25:41.662Z,8.27
2022-10-18T03:28:10.940Z,7.03
2022-10-18T03:30:38.933Z,8.07
2022-10-18T03:33:06.618Z,5.18
2022-10-18T03:35:33.326Z,6.47
2022-10-18T03:37:59.959Z,6.60
2022-10-18T03:40:26.708Z,6.32
2022-10-18T03:42:53.376Z,5.13
2022-10-18T03:45:20.081Z,7.10
2022-10-18T03:47:46.723Z,5.57
2022-10-18T03:50:13.432Z,5.18
2022-10-18T03:52:40.090Z,4.95
2022-10-18T03:55:07.482Z,3.45
2022-10-18T03:57:34.205Z,3.15
2022-10-18T04:00:00.905Z,5.00
2022-10-18T04:02:27.589Z,6.47
2022-10-18T04:04:54.189Z,4.45
2022-10-18T04:07:20.845Z,6.10
2022-10-18T04:09:47.495Z,5.22
2022-10-18T04:12:14.240Z,4.82
2022-10-18T04:14:40.938Z,4.20
2022-10-18T04:17:08.368Z,4.95
2022-10-18T04:19:35.077Z,4.50
2022-10-18T04:22:01.927Z,4.97
2022-10-18T04:24:28.582Z,4.72
2022-10-18T04:26:55.297Z,4.13
2022-10-18T04:29:22.022Z,6.53
2022-10-18T04:31:48.681Z,6.85
2022-10-18T04:34:15.362Z,6.38
2022-10-18T04:36:42.080Z,4.93
2022-10-18T04:39:08.843Z,6.00
2022-10-18T04:41:36.158Z,7.03
2022-10-18T04:44:02.827Z,5.35
2022-10-18T04:46:29.529Z,5.80
2022-10-18T04:48:56.313Z,5.22
2022-10-18T04:51:23.235Z,6.30
2022-10-18T04:53:49.999Z,4.70
2022-10-18T04:56:16.743Z,5.13
2022-10-18T04:58:43.500Z,6.15
2022-10-18T05:01:10.201Z,5.53
2022-10-18T05:03:36.921Z,5.38
2022-10-18T05:06:04.199Z,3.80
2022-10-18T05:08:32.670Z,6.22
2022-10-18T05:11:00.130Z,4.53
2022-10-18T05:13:28.381Z,5.15
2022-10-18T05:15:56.992Z,5.45
2022-10-18T05:18:23.660Z,5.78
2022-10-18T05:20:50.366Z,6.10
2022-10-18T05:23:17.082Z,7.15
2022-10-18T05:25:43.997Z,6.55
2022-10-18T05:28:27.185Z,5.80
2022-10-18T05:31:04.936Z,5.65
2022-10-18T05:33:31.951Z,7.88
2022-10-18T05:35:58.868Z,6.45
2022-10-18T05:38:25.828Z,8.75
2022-10-18T05:40:52.593Z,6.22
2022-10-18T05:43:19.294Z,8.15
2022-10-18T05:45:51.713Z,9.48
2022-10-18T05:48:18.737Z,8.65
2022-10-18T05:50:45.623Z,7.97
2022-10-18T05:53:24.716Z,9.15
2022-10-18T05:56:02.720Z,10.10
2022-10-18T05:58:29.475Z,8.00
2022-10-18T06:01:00.211Z,6.30
2022-10-18T06:03:27.783Z,9.15
2022-10-18T06:06:03.387Z,9.35
2022-10-18T06:08:30.310Z,9.63
2022-10-18T06:10:57.261Z,10.10
2022-10-18T06:13:24.070Z,10.15
2022-10-18T06:15:50.939Z,9.20
2022-10-18T06:18:17.635Z,13.02
2022-10-18T06:20:44.263Z,10.93
2022-10-18T06:23:11.148Z,12.38
2022-10-18T06:25:37.795Z,12.43
2022-10-18T06:28:07.841Z,10.75
2022-10-18T06:30:37.099Z,9.02
2022-10-18T06:33:03.888Z,10.98
2022-10-18T06:35:30.502Z,9.38
2022-10-18T06:37:57.635Z,7.85
2022-10-18T06:40:24.541Z,11.00
2022-10-18T06:43:00.133Z,9.27
2022-10-18T06:45:27.439Z,8.82
2022-10-18T06:47:54.043Z,10.57
2022-10-18T06:50:20.688Z,10.38
2022-10-18T06:52:48.875Z,9.90
2022-10-18T06:55:15.620Z,9.63
2022-10-18T06:57:42.312Z,9.07
2022-10-18T07:00:09.596Z,9.25
2022-10-18T07:02:37.420Z,8.80
2022-10-18T07:05:04.293Z,8.63
2022-10-18T07:07:31.997Z,7.60
2022-10-18T07:09:58.872Z,9.13
2022-10-18T07:12:25.560Z,8.52
2022-10-18T07:14:52.255Z,8.90
2022-10-18T07:17:18.889Z,10.50
2022-10-18T07:19:45.561Z,9.30
2022-10-18T07:22:12.722Z,9.65
2022-10-18T07:24:39.453Z,9.90
2022-10-18T07:27:06.220Z,10.80
2022-10-18T07:29:33.675Z,10.43
2022-10-18T07:32:00.357Z,9.65
2022-10-18T07:34:28.878Z,10.48
2022-10-18T07:36:55.551Z,9.18
2022-10-18T07:39:22.340Z,9.68
2022-10-18T07:41:49.005Z,9.02
2022-10-18T07:44:15.646Z,10.10
2022-10-18T07:46:42.390Z,9.50
2022-10-18T07:49:09.088Z,8.02
2022-10-18T07:51:36.110Z,7.68
2022-10-18T07:54:03.050Z,9.88
2022-10-18T07:56:29.756Z,7.50
2022-10-18T07:58:56.578Z,7.25
2022-10-18T08:01:24.769Z,7.25
2022-10-18T08:03:52.415Z,6.13
2022-10-18T08:06:21.098Z,7.70
2022-10-18T08:08:47.908Z,6.75
2022-10-18T08:11:17.576Z,7.40
2022-10-18T08:13:44.437Z,7.55
2022-10-18T08:16:13.862Z,9.18
2022-10-18T08:18:41.002Z,8.48
2022-10-18T08:21:10.260Z,6.53
2022-10-18T08:23:37.718Z,6.93
2022-10-18T08:26:06.772Z,8.32
2022-10-18T08:28:36.544Z,5.35
2022-10-18T08:31:08.294Z,8.00
2022-10-18T08:33:36.189Z,6.68
2022-10-18T08:36:08.099Z,6.45
2022-10-18T08:38:36.605Z,6.80
2022-10-18T08:41:28.302Z,7.15
2022-10-18T08:44:07.313Z,7.30
2022-10-18T08:46:37.196Z,7.20
2022-10-18T08:49:05.624Z,7.72
2022-10-18T08:51:38.148Z,8.15
2022-10-18T08:54:04.860Z,7.22
2022-10-18T08:56:33.745Z,8.52
2022-10-18T08:59:04.061Z,7.97
2022-10-18T09:01:33.529Z,8.07
2022-10-18T09:04:26.329Z,10.20
2022-10-18T09:07:46.893Z,9.18
2022-10-18T09:10:21.733Z,8.82
2022-10-18T09:13:11.325Z,8.25
2022-10-18T09:15:59.847Z,10.02
2022-10-18T09:18:51.401Z,8.07
2022-10-18T09:21:32.184Z,9.18
2022-10-18T09:24:21.847Z,9.80
2022-10-18T09:26:51.548Z,10.20
2022-10-18T09:29:38.064Z,10.77
2022-10-18T09:32:27.828Z,10.00
2022-10-18T09:35:17.987Z,8.73
2022-10-18T09:37:45.544Z,9.35
2022-10-18T09:40:19.144Z,11.80
2022-10-18T09:42:56.721Z,14.50
2022-10-18T09:45:33.940Z,14.98
2022-10-18T09:48:14.740Z,16.00
2022-10-18T09:50:54.725Z,14.30
2022-10-18T09:53:50.592Z,13.48
2022-10-18T09:56:24.813Z,12.00
2022-10-18T09:58:52.051Z,12.00
2022-10-18T10:01:22.959Z,14.05
2022-10-18T10:03:49.863Z,11.25
2022-10-18T10:06:17.745Z,10.80
2022-10-18T10:08:49.056Z,9.73
2022-10-18T10:11:37.880Z,9.60
2022-10-18T10:14:19.414Z,8.60
2022-10-18T10:16:53.577Z,8.75
2022-10-18T10:19:24.994Z,8.55
2022-10-18T10:21:56.895Z,8.30
2022-10-18T10:24:31.157Z,8.30
2022-10-18T10:27:14.951Z,8.77
2022-10-18T10:29:47.561Z,8.32
2022-10-18T10:32:19.721Z,9.35
2022-10-18T10:37:36.532Z,6.97
2022-10-18T10:40:18.744Z,7.90
2022-10-18T10:43:25.654Z,8.40
2022-10-18T10:48:28.805Z,8.30
2022-10-18T10:51:12.080Z,6.85
2022-10-18T10:54:00.701Z,8.43
2022-10-18T10:56:31.112Z,7.53
2022-10-18T10:59:18.789Z,6.28
2022-10-18T11:01:47.717Z,7.00
2022-10-18T11:04:24.088Z,7.68
2022-10-18T11:07:09.611Z,7.50
2022-10-18T11:09:53.354Z,6.47
2022-10-18T11:12:52.312Z,7.78
2022-10-18T11:15:36.612Z,8.15
2022-10-18T11:18:19.773Z,8.65
2022-10-18T11:21:01.863Z,8.00
2022-10-18T11:23:32.928Z,6.70
2022-10-18T11:26:08.718Z,7.00
2022-10-18T11:29:13.999Z,7.63
2022-10-18T11:32:18.910Z,7.78
2022-10-18T11:34:45.521Z,6.70
2022-10-18T11:37:51.008Z,6.68
2022-10-18T11:40:57.815Z,6.32
2022-10-18T11:43:57.005Z,6.15
2022-10-18T11:46:37.074Z,6.95
2022-10-18T11:49:28.322Z,6.18
2022-10-18T11:52:12.610Z,5.05
2022-10-18T11:54:59.114Z,8.10
2022-10-18T11:57:34.070Z,8.05
2022-10-18T12:00:30.761Z,7.88
2022-10-18T12:03:29.180Z,6.47
2022-10-18T12:05:58.123Z,6.35
2022-10-18T12:08:47.967Z,7.55
2022-10-18T12:11:38.070Z,6.85
2022-10-18T12:14:19.682Z,7.38
2022-10-18T12:16:52.247Z,7.43
2022-10-18T12:19:31.108Z,8.68
2022-10-18T12:22:23.080Z,8.65
2022-10-18T12:24:50.024Z,7.47
2022-10-18T12:27:18.598Z,8.25
2022-10-18T12:29:54.784Z,7.57
2022-10-18T12:32:32.510Z,6.90
2022-10-18T12:35:15.410Z,6.05
2022-10-18T12:38:09.233Z,6.88
2022-10-18T12:40:43.377Z,6.70
2022-10-18T12:43:17.528Z,7.68
2022-10-18T12:46:13.032Z,6.90
2022-10-18T12:48:43.029Z,7.72
2022-10-18T12:51:19.263Z,8.95
2022-10-18T12:54:02.820Z,11.20
2022-10-18T12:56:29.466Z,10.90
2022-10-18T12:59:16.979Z,12.77
2022-10-18T13:01:52.907Z,10.65
2022-10-18T13:04:28.802Z,11.77
2022-10-18T13:06:58.680Z,9.52
2022-10-18T13:09:26.414Z,9.43
2022-10-18T13:12:02.139Z,11.32
2022-10-18T13:15:25.576Z,13.48
2022-10-18T13:18:05.686Z,10.88
2022-10-18T13:20:38.105Z,9.90
2022-10-18T13:23:13.512Z,10.63
2022-10-18T13:25:50.583Z,10.40
2022-10-18T13:28:32.291Z,11.82
2022-10-18T13:31:08.488Z,12.05
2022-10-18T13:33:39.160Z,9.52
2022-10-18T13:36:22.647Z,10.32
2022-10-18T13:39:02.467Z,11.20
2022-10-18T13:41:56.660Z,11.45
2022-10-18T13:44:37.684Z,11.63
2022-10-18T13:47:04.358Z,8.88
2022-10-18T13:49:39.872Z,11.77
2022-10-18T13:52:28.191Z,11.98
2022-10-18T13:55:28.609Z,9.80
2022-10-18T13:58:20.828Z,10.90
2022-10-18T14:01:14.277Z,11.90
2022-10-18T14:04:08.936Z,10.65
2022-10-18T14:06:38.475Z,12.60
2022-10-18T14:09:32.881Z,11.32
2022-10-18T14:12:28.638Z,12.15
2022-10-18T14:15:07.533Z,12.77
2022-10-18T14:17:46.222Z,13.13
2022-10-18T14:21:01.368Z,13.77
2022-10-18T14:23:44.594Z,13.48
2022-10-18T14:26:17.128Z,12.48
2022-10-18T14:29:00.712Z,15.57
2022-10-18T14:31:28.166Z,13.95
2022-10-18T14:33:58.442Z,13.85
2022-10-18T14:36:29.317Z,13.13
2022-10-18T14:39:05.089Z,12.80
2022-10-18T14:41:32.890Z,12.98
2022-10-18T14:44:14.483Z,13.02
2022-10-18T14:46:49.565Z,12.73
2022-10-18T14:49:17.962Z,13.75
2022-10-18T14:51:47.303Z,12.85
2022-10-18T14:54:18.474Z,12.43
2022-10-18T14:56:45.519Z,12.18
2022-10-18T14:59:27.222Z,11.93
2022-10-18T15:02:14.572Z,13.35
2022-10-18T15:04:44.804Z,13.60
2022-10-18T15:07:17.558Z,13.35
2022-10-18T15:09:45.492Z,11.55
2022-10-18T15:12:15.105Z,14.88
2022-10-18T15:14:43.321Z,14.13
2022-10-18T15:17:31.275Z,13.40
2022-10-18T15:20:05.111Z,14.07
2022-10-18T15:22:34.848Z,12.27
2022-10-18T15:25:17.315Z,11.75
2022-10-18T15:27:51.337Z,12.25
2022-10-18T15:30:30.243Z,12.50
2022-10-18T15:33:03.040Z,13.55
2022-10-18T15:35:33.326Z,12.55
2022-10-18T15:38:04.451Z,13.48
2022-10-18T15:40:35.042Z,12.70
2022-10-18T15:43:05.932Z,12.70
2022-10-18T15:45:38.553Z,10.95
2022-10-18T15:48:12.069Z,12.30
2022-10-18T15:50:50.477Z,16.33
2022-10-18T15:53:32.228Z,10.23
2022-10-18T15:56:02.224Z,12.13
2022-10-18T15:58:42.180Z,12.23
2022-10-18T16:01:18.462Z,18.17
2022-10-18T16:03:47.162Z,20.05
2022-10-18T16:06:18.123Z,18.45
2022-10-18T16:08:49.196Z,18.23
2022-10-18T16:11:22.060Z,17.95
2022-10-18T16:13:50.172Z,20.25
2022-10-18T16:16:28.268Z,21.15
2022-10-18T16:18:55.891Z,22.70
2022-10-18T16:21:29.630Z,18.70
2022-10-18T16:23:57.093Z,19.85
2022-10-18T16:26:25.395Z,18.45
2022-10-18T16:28:53.331Z,19.58
2022-10-18T16:31:25.055Z,19.75
2022-10-18T16:33:52.973Z,15.27
2022-10-18T16:36:22.375Z,19.13
2022-10-18T16:38:49.546Z,16.40
2022-10-18T16:41:16.845Z,18.13
2022-10-18T16:43:45.608Z,19.85
2022-10-18T16:46:18.583Z,18.73
2022-10-18T16:48:46.393Z,16.45
2022-10-18T16:51:13.801Z,18.35
2022-10-18T16:53:41.261Z,19.13
2022-10-18T16:56:16.264Z,16.00
2022-10-18T16:58:45.047Z,18.38
2022-10-18T17:01:17.649Z,18.33
2022-10-18T17:03:45.025Z,18.42
2022-10-18T17:06:27.053Z,15.85
2022-10-18T17:08:55.485Z,17.95
2022-10-18T17:11:24.999Z,17.25
2022-10-18T17:13:52.965Z,14.45
2022-10-18T17:16:31.882Z,17.02
2022-10-18T17:19:01.430Z,17.00
2022-10-18T17:21:40.257Z,16.02
2022-10-18T17:24:09.614Z,17.13
2022-10-18T17:26:38.947Z,16.40
2022-10-18T17:29:08.444Z,15.40
2022-10-18T17:31:37.267Z,16.35
2022-10-18T17:34:04.633Z,16.48
2022-10-18T17:36:33.328Z,15.38
2022-10-18T17:39:01.096Z,16.58
2022-10-18T17:41:28.466Z,17.38
2022-10-18T17:43:55.877Z,14.20
2022-10-18T17:46:23.727Z,17.30
2022-10-18T17:48:50.424Z,15.73
2022-10-18T17:51:17.676Z,16.85
2022-10-18T17:53:44.880Z,14.35
2022-10-18T17:56:12.967Z,12.05
2022-10-18T17:58:39.911Z,15.40
2022-10-18T18:01:18.993Z,13.23
2022-10-18T18:03:47.664Z,11.70
2022-10-18T18:06:15.721Z,11.15
2022-10-18T18:08:42.489Z,12.05
2022-10-18T18:11:09.117Z,12.05
2022-10-18T18:13:35.839Z,12.60
2022-10-18T18:16:13.369Z,11.65
2022-10-18T18:18:40.204Z,13.60
2022-10-18T18:21:06.967Z,9.73
2022-10-18T18:23:33.620Z,12.65
2022-10-18T18:26:00.375Z,10.95
2022-10-18T18:28:27.137Z,12.68
2022-10-18T18:30:53.889Z,15.50
2022-10-18T18:33:20.564Z,12.55
2022-10-18T18:35:59.498Z,12.98
2022-10-18T18:38:26.683Z,13.57
2022-10-18T18:41:03.789Z,14.93
2022-10-18T18:43:30.507Z,14.23
2022-10-18T18:45:57.274Z,14.75
2022-10-18T18:48:24.417Z,13.68
2022-10-18T18:50:52.231Z,15.32
2022-10-18T18:53:19.582Z,13.43
2022-10-18T18:55:46.480Z,12.27
2022-10-18T18:58:13.195Z,10.45
2022-10-18T19:00:44.238Z,14.48
2022-10-18T19:03:12.311Z,13.07
2022-10-18T19:05:39.167Z,11.77
2022-10-18T19:08:06.280Z,10.73
2022-10-18T19:10:32.998Z,11.35
2022-10-18T19:12:59.804Z,10.85
2022-10-18T19:15:26.613Z,11.50
2022-10-18T19:17:53.299Z,11.43
2022-10-18T19:20:20.053Z,13.43
2022-10-18T19:22:46.649Z,11.38
2022-10-18T19:25:13.504Z,10.35
2022-10-18T19:27:40.314Z,14.18
2022-10-18T19:30:09.623Z,11.65
2022-10-18T19:32:36.287Z,14.50
2022-10-18T19:35:03.080Z,12.82
2022-10-18T19:37:29.847Z,13.85
2022-10-18T19:39:56.676Z,18.98
2022-10-18T19:42:27.515Z,14.13
2022-10-18T19:44:57.229Z,12.15
2022-10-18T19:47:23.855Z,12.27
2022-10-18T19:49:51.788Z,9.77
2022-10-18T19:52:18.510Z,16.77
2022-10-18T19:54:45.182Z,13.38
2022-10-18T19:57:11.857Z,14.52
2022-10-18T19:59:42.403Z,11.77
2022-10-18T20:02:14.192Z,12.82
2022-10-18T20:04:40.948Z,11.75
2022-10-18T20:07:07.580Z,10.95
2022-10-18T20:09:34.313Z,14.40
2022-10-18T20:12:01.054Z,11.93
2022-10-18T20:14:28.065Z,11.40
2022-10-18T20:16:54.703Z,13.50
2022-10-18T20:19:21.377Z,15.93
2022-10-18T20:21:47.989Z,13.23
2022-10-18T20:24:14.624Z,11.77
2022-10-18T20:26:43.328Z,14.63
2022-10-18T20:29:10.093Z,14.07
2022-10-18T20:31:39.320Z,14.10
2022-10-18T20:34:08.437Z,13.80
2022-10-18T20:36:35.565Z,12.75
2022-10-18T20:39:04.329Z,10.45
2022-10-18T20:41:34.634Z,12.82
2022-10-18T20:44:04.370Z,13.15
2022-10-18T20:46:35.859Z,12.02
2022-10-18T20:49:04.292Z,14.32
2022-10-18T20:51:33.463Z,13.35
2022-10-18T20:54:01.712Z,10.43
2022-10-18T20:56:28.683Z,15.38
2022-10-18T20:58:56.869Z,14.63
2022-10-18T21:01:29.333Z,17.05
2022-10-18T21:03:57.846Z,13.15
2022-10-18T21:06:29.740Z,12.18
2022-10-18T21:08:58.663Z,18.08
2022-10-18T21:11:27.342Z,11.70
2022-10-18T21:14:00.195Z,10.77
2022-10-18T21:16:27.374Z,13.48
2022-10-18T21:18:54.111Z,13.68
2022-10-18T21:21:23.181Z,14.77
2022-10-18T21:23:50.850Z,16.38
2022-10-18T21:26:26.273Z,13.32
2022-10-18T21:28:55.043Z,15.90
2022-10-18T21:31:27.448Z,11.43
2022-10-18T21:33:56.343Z,12.55
2022-10-18T21:36:23.461Z,15.35
2022-10-18T21:38:50.856Z,11.25
2022-10-18T21:41:18.636Z,10.15
2022-10-18T21:43:48.034Z,13.07
2022-10-18T21:46:16.672Z,10.77
2022-10-18T21:48:45.209Z,14.23
2022-10-18T21:51:13.253Z,10.95
2022-10-18T21:53:43.648Z,12.10
2022-10-18T21:56:17.047Z,14.15
2022-10-18T21:58:44.147Z,11.30
2022-10-18T22:01:17.121Z,12.65
2022-10-18T22:03:45.086Z,12.20
2022-10-18T22:06:14.669Z,9.18
2022-10-18T22:08:47.604Z,11.25
2022-10-18T22:11:14.875Z,15.48
2022-10-18T22:13:42.096Z,17.95
2022-10-18T22:16:10.922Z,12.25
2022-10-18T22:18:37.761Z,12.55
2022-10-18T22:21:06.892Z,12.55
2022-10-18T22:23:36.018Z,10.18
2022-10-18T22:26:08.747Z,11.77
2022-10-18T22:28:36.189Z,9.38
2022-10-18T22:31:03.436Z,10.35
2022-10-18T22:33:30.750Z,10.30
2022-10-18T22:35:57.626Z,9.88
2022-10-18T22:38:24.447Z,12.98
2022-10-18T22:40:51.781Z,9.25
2022-10-18T22:43:20.002Z,12.75
2022-10-18T22:45:46.655Z,11.63
2022-10-18T22:48:13.323Z,14.88
2022-10-18T22:50:39.974Z,11.35
2022-10-18T22:53:06.573Z,11.82
2022-10-18T22:55:33.250Z,10.13
2022-10-18T22:57:59.888Z,9.60
2022-10-18T23:00:26.666Z,9.77
2022-10-18T23:02:53.383Z,11.00
2022-10-18T23:05:20.063Z,15.63
2022-10-18T23:07:49.602Z,8.20
2022-10-18T23:10:16.825Z,10.38
2022-10-18T23:12:44.191Z,11.88
2022-10-18T23:15:11.042Z,10.95
2022-10-18T23:17:37.834Z,10.90
2022-10-18T23:20:05.683Z,9.95
2022-10-18T23:22:33.560Z,12.43
2022-10-18T23:25:00.377Z,9.25
2022-10-18T23:27:28.717Z,10.43
2022-10-18T23:29:55.396Z,10.65
2022-10-18T23:32:22.111Z,14.07
2022-10-18T23:34:48.860Z,11.68
2022-10-18T23:37:15.525Z,13.15
2022-10-18T23:39:42.127Z,18.05
2022-10-18T23:42:08.835Z,13.88
2022-10-18T23:44:35.436Z,13.43
2022-10-18T23:47:02.209Z,19.58
2022-10-18T23:49:28.882Z,13.13
2022-10-18T23:51:55.521Z,12.35
2022-10-18T23:54:22.243Z,15.70
2022-10-18T23:56:49.062Z,13.88
2022-10-18T23:59:15.860Z,13.43
